Shady Cove, Oregon
Current Conditions -  °F | °C
As of 8:53 AM on Thursday 23 Oct 2014 (Local Time) from KMFR Reporting Station
Overcast Overcast  
Wind Chill: 56°   Ceiling: 6500
Heat Index: 56°   Visibility: 10mi
Dew Point: 54°   Wind: 9mph
Humidity: 93%   Direction: 350°N
Pressure: 29.9"   Gusts: NA
Location:  42.61°N, 122.81°W
Report Text: KMFR 231553Z 35008KT 10SM FEW007 BKN065 OVC075 13/12 A2990 RMK AO2 SLP121 T01330122
Loading
Personal Weather Stations






























Interactive Weather Map
Tropical Storm Tracking
New forecast layout! Learn more

10-Day Weather Forecast

Advertisements
Track Severe Weather on mobile